Aérodrome :
LOGIN :

S'inscrire | Disclaimer

   EN    FR    IT 

 










Légende :    VFR   VFR Marginal   IFR   IFR Intensif   IFR Très Intensif
Visi : 
Plafond : 
>= 8 km
>= 3000ft
5 à 8 km
1000 à 3000 ft
1500m à 5 km
500 à 1000 ft
800 à 1500m
200 à 500 ft
< 800m
< 200 ft
Symboles :   Orages  Brouillard  Fortes neiges  Fortes précipitations  Vent > 20 kt
SIGMETs :   Divers  Orages  Givrage  Turbulence  Onde Orograph.  Cendres Volcan.







- Altitude de l'aérodrome : 219 ft
- Code IATA : DNR
- Voir les cartes d'approche


LFRD - Dinard

DERNIER METAR :
  • 112300Z AUTO 16008KT 7000 OVC007 05/03 Q1021 TEMPO 3000 BR

METARs EXPIRÉS :
  • 112230Z AUTO 17010KT 7000 OVC007 05/04 Q1021 TEMPO 3000 BR
  • 112200Z AUTO 16010KT 8000 OVC007 05/04 Q1021 TEMPO 3000 BR
  • 112130Z AUTO 16009KT 7000 OVC006 05/04 Q1021 TEMPO 3000 BR
  • 112100Z AUTO 16008KT 7000 BKN006 BKN190 05/04 Q1021 TEMPO 3000 BR
  • 112030Z AUTO 16007KT 120V180 8000 FEW007 BKN140 OVC200 05/04 Q1021 TEMPO 3000 BR BKN005

TAF TAF LFRD
Valide du 11 à 18h jusqu'au 12 à 18h UTC


111700Z 1118/1218 15010KT 6000 SCT030
TEMPO 1118/1202 3000 BR BKN005
BECMG 1200/1202 5000 RA BKN015
TEMPO 1202/1208 3000 RA BKN005
BECMG 1209/1212 9999 NSW BKN030
ATIS : +33 2 99 16 81 50
Pas de NOTAMs connus pour ce terrain.
3 SIGMETs publiés pour la FIR Brest (LFRR) :
 
Turbulence forte
LFRR SIGMET 3 VALID 120000/120400 LFPW
LFRR BREST FIR/UIR SEV TURB FCST WI N4830 W00800 - N4900 W00800 - N4915 W00715 - N4730 W00600 - N4715 W00715 - N4830 W00800 FL170/280 MOV E 15KT INTSF=
Annulation du SIGMET 1 
LFRR SIGMET 2 VALID 112220/120400 LFPW
LFRR BREST FIR/UIR CNL SIGMET 1 120000/120400=
SIGMET 1  ANNULÉ :
Turbulence forte
LFRR SIGMET 1 VALID 120000/120400 LFPW
LFRR BREST FIR/UIR SEV TURB FCST WI N4830 W00800 - N4900 W00800 - N4915 W00715 - N4800 W00630 - N4730 W00700 - N4830 W00800 FL170/280 MOV E 15KT INTSF=



MET'MAP, la Météo Aéronautique d'un coup d'oeil ! - Copyright ORBIFLY Décembre 2007 - Disclaimer

ORBIFLY MET'MAP TEAM :

Programmation & Développement : Alexandra Zaïnal
Conception & Développement : Baudouin d'Aumeries
Co-Programmation & Développement : Marc-Olivier Méhu
Soutien technique & logistique : Manuel Goepfert

Contact : metmap@orbifly.com




SOURCES & CREDITS :

   NOAA